Wetterdaten: Woche 12.01.04 - 18.01.04 (KW3)
Datum Zeit Temperatur Luftfeuchte Luftdruck Regenmenge Wind Richtung Taupunkt Windchill
12.01.2004 00:00 10.0 C 70 % 1010.8 hPa 0.0 l/m 25.3 km/h (4 Bft) W 4.6 C 8.1 C
12.01.2004 01:00 10.4 C 60 % 1010.8 hPa 0.0 l/m 46.7 km/h (6 Bft) W-NW 3.0 C 9.5 C
12.01.2004 02:00 8.6 C 75 % 1011.8 hPa 3.8 l/m 41.4 km/h (6 Bft) W-NW 4.3 C 4.3 C
12.01.2004 03:00 6.9 C 83 % 1013.9 hPa 0.3 l/m 44.1 km/h (6 Bft) W-NW 4.3 C 1.7 C
12.01.2004 04:00 6.8 C 84 % 1014.4 hPa 2.8 l/m 32.8 km/h (5 Bft) NW 4.2 C 2.2 C
12.01.2004 05:00 6.1 C 86 % 1013.9 hPa 0.3 l/m 27.3 km/h (4 Bft) W-NW 3.8 C 1.7 C
12.01.2004 06:00 6.1 C 87 % 1014.0 hPa 1.8 l/m 4.6 km/h (1 Bft) NW 4.1 C 5.2 C
12.01.2004 07:00 5.7 C 90 % 1014.6 hPa 1.4 l/m 15.4 km/h (3 Bft) W-NW 4.2 C 2.8 C
12.01.2004 08:00 5.5 C 91 % 1013.9 hPa 0.3 l/m 9.9 km/h (2 Bft) W-NW 4.1 C 3.5 C
12.01.2004 09:00 5.7 C 91 % 1013.8 hPa 0.3 l/m 1.9 km/h (1 Bft) SW 4.4 C 5.4 C
12.01.2004 10:00 5.8 C 93 % 1012.5 hPa 1.8 l/m 3.5 km/h (1 Bft) SO 4.7 C 5.2 C
12.01.2004 11:00 6.0 C 94 % 1010.8 hPa 1.0 l/m 6.3 km/h (2 Bft) SO 5.1 C 5.0 C
12.01.2004 12:00 6.4 C 91 % 1008.5 hPa 0.3 l/m 18.7 km/h (3 Bft) SO 5.1 C 3.1 C
12.01.2004 13:00 6.3 C 92 % 1005.8 hPa 0.3 l/m 10.2 km/h (2 Bft) SO 5.1 C 4.4 C
12.01.2004 14:00 6.3 C 90 % 1002.7 hPa 1.4 l/m 2.8 km/h (1 Bft) SW 4.8 C 6.0 C
12.01.2004 15:00 6.3 C 86 % 1002.0 hPa 0.7 l/m 27.5 km/h (4 Bft) W-SW 4.1 C 2.1 C
12.01.2004 16:00 7.5 C 81 % 1000.6 hPa 0.7 l/m 34.0 km/h (5 Bft) W 4.5 C 3.1 C
12.01.2004 17:00 8.3 C 82 % 1000.4 hPa 2.8 l/m 31.5 km/h (5 Bft) W-SW 5.4 C 4.4 C
12.01.2004 18:00 8.7 C 87 % 1000.6 hPa 0.7 l/m 22.3 km/h (4 Bft) W 6.6 C 5.6 C
12.01.2004 19:00 10.2 C 78 % 1001.0 hPa 0.0 l/m 38.9 km/h (6 Bft) W-NW 6.3 C 8.5 C
12.01.2004 20:00 12.1 C 54 % 1002.2 hPa 0.0 l/m 73.7 km/h (8 Bft) W-NW 3.1 C 12.1 C
12.01.2004 21:00 11.0 C 55 % 1005.5 hPa 0.0 l/m 61.6 km/h (7 Bft) W-NW 2.2 C 11.0 C
12.01.2004 22:00 9.6 C 57 % 1007.5 hPa 0.0 l/m 45.8 km/h (6 Bft) W-NW 1.6 C 6.3 C
12.01.2004 23:00 9.0 C 57 % 1008.9 hPa 0.0 l/m 34.6 km/h (5 Bft) W-NW 1.0 C 5.0 C
13.01.2004 00:00 8.4 C 57 % 1009.5 hPa 0.0 l/m 26.1 km/h (4 Bft) W-NW 0.5 C 4.8 C
13.01.2004 01:00 7.8 C 60 % 1008.7 hPa 0.0 l/m 19.5 km/h (3 Bft) W-NW 0.6 C 4.8 C
13.01.2004 02:00 7.8 C 60 % 1008.2 hPa 0.0 l/m 19.4 km/h (3 Bft) W-NW 0.6 C 4.7 C
13.01.2004 03:00 7.2 C 64 % 1006.7 hPa 0.0 l/m 6.0 km/h (2 Bft) W-NW 0.9 C 6.1 C
13.01.2004 04:00 6.6 C 69 % 1005.1 hPa 0.0 l/m 2.3 km/h (1 Bft) SO 1.3 C 6.3 C
13.01.2004 05:00 6.0 C 82 % 1003.9 hPa 1.4 l/m 1.8 km/h (1 Bft) SO 3.0 C 5.7 C
13.01.2004 06:00 6.0 C 90 % 1002.6 hPa 3.5 l/m 0.0 km/h (0 Bft) N 4.5 C 6.0 C
13.01.2004 07:00 6.7 C 93 % 1001.0 hPa 4.5 l/m 2.8 km/h (1 Bft) SO 5.6 C 6.4 C
13.01.2004 08:00 7.2 C 93 % 999.1 hPa 2.4 l/m 3.8 km/h (1 Bft) S-SW 6.2 C 6.5 C
13.01.2004 09:00 8.4 C 92 % 998.3 hPa 6.6 l/m 7.6 km/h (2 Bft) S 7.2 C 7.3 C
13.01.2004 10:00 8.6 C 94 % 998.3 hPa 4.5 l/m 5.4 km/h (1 Bft) S-SW 7.7 C 7.8 C
13.01.2004 11:00 10.7 C 93 % 998.3 hPa 4.9 l/m 11.6 km/h (2 Bft) W 9.6 C 10.6 C
13.01.2004 12:00 11.6 C 92 % 997.3 hPa 2.1 l/m 22.6 km/h (4 Bft) W-NW 10.4 C 11.6 C
13.01.2004 13:00 12.1 C 85 % 996.6 hPa 1.4 l/m 27.9 km/h (4 Bft) W-NW 9.7 C 12.1 C
13.01.2004 14:00 12.0 C 85 % 996.2 hPa 3.1 l/m 29.9 km/h (5 Bft) W 9.5 C 12.0 C
13.01.2004 15:00 11.6 C 86 % 996.6 hPa 1.0 l/m 23.4 km/h (4 Bft) W 9.3 C 11.6 C
13.01.2004 16:00 11.7 C 77 % 996.8 hPa 0.3 l/m 30.1 km/h (5 Bft) W 7.9 C 11.7 C
13.01.2004 17:00 11.6 C 76 % 996.2 hPa 0.3 l/m 25.2 km/h (4 Bft) W 7.5 C 11.6 C
13.01.2004 18:00 10.7 C 82 % 996.2 hPa 2.1 l/m 19.3 km/h (3 Bft) W 7.7 C 10.7 C
13.01.2004 19:00 10.2 C 86 % 996.2 hPa 2.1 l/m 16.1 km/h (3 Bft) W-NW 7.9 C 10.1 C
13.01.2004 20:00 10.5 C 83 % 995.2 hPa 0.0 l/m 26.3 km/h (4 Bft) W 7.8 C 10.3 C
13.01.2004 21:00 11.2 C 74 % 995.0 hPa 0.0 l/m 36.3 km/h (5 Bft) W 6.7 C 11.2 C
13.01.2004 22:00 10.2 C 83 % 996.1 hPa 3.5 l/m 32.4 km/h (5 Bft) W-NW 7.4 C 9.4 C
13.01.2004 23:00 8.6 C 84 % 998.8 hPa 0.3 l/m 42.5 km/h (6 Bft) NW 6.0 C 4.0 C
14.01.2004 00:00 7.6 C 83 % 1000.6 hPa 0.0 l/m 44.9 km/h (6 Bft) W-NW 4.9 C 2.6 C
14.01.2004 01:00 7.0 C 78 % 1002.2 hPa 0.0 l/m 38.3 km/h (5 Bft) W-NW 3.4 C 2.1 C
14.01.2004 02:00 6.9 C 75 % 1003.2 hPa 0.0 l/m 27.8 km/h (4 Bft) W-NW 2.9 C 2.8 C
14.01.2004 03:00 6.5 C 76 % 1004.4 hPa 0.0 l/m 41.6 km/h (6 Bft) W-NW 2.5 C 1.3 C
14.01.2004 04:00 5.9 C 79 % 1005.4 hPa 0.3 l/m 39.7 km/h (6 Bft) W-NW 2.6 C 0.6 C
14.01.2004 05:00 6.3 C 74 % 1006.6 hPa 0.0 l/m 39.0 km/h (6 Bft) W-NW 1.9 C 1.2 C
14.01.2004 06:00 5.8 C 73 % 1007.5 hPa 0.3 l/m 40.3 km/h (6 Bft) W-NW 1.3 C 0.5 C
14.01.2004 07:00 5.0 C 79 % 1008.9 hPa 0.3 l/m 26.5 km/h (4 Bft) NW 1.7 C 0.6 C
14.01.2004 08:00 5.0 C 75 % 1009.7 hPa 0.0 l/m 21.2 km/h (4 Bft) W-NW 0.9 C 1.0 C
14.01.2004 09:00 4.8 C 70 % 1009.7 hPa 0.0 l/m 15.4 km/h (3 Bft) NW -0.2 C 1.8 C
14.01.2004 10:00 6.0 C 63 % 1008.8 hPa 0.0 l/m 15.9 km/h (3 Bft) W-NW -0.6 C 3.1 C
14.01.2004 11:00 6.5 C 58 % 1008.5 hPa 0.0 l/m 19.2 km/h (3 Bft) W-NW -1.2 C 3.1 C
14.01.2004 12:00 6.9 C 56 % 1007.6 hPa 0.0 l/m 21.7 km/h (4 Bft) NW -1.3 C 3.4 C
14.01.2004 13:00 7.2 C 55 % 1006.5 hPa 0.0 l/m 15.9 km/h (3 Bft) W-NW -1.3 C 4.4 C
14.01.2004 14:00 7.0 C 56 % 1005.6 hPa 0.0 l/m 17.1 km/h (3 Bft) NW -1.1 C 4.0 C
14.01.2004 15:00 6.8 C 59 % 1004.9 hPa 0.0 l/m 7.0 km/h (2 Bft) W-NW -0.7 C 5.5 C
14.01.2004 16:00 6.1 C 62 % 1003.9 hPa 0.0 l/m 1.8 km/h (1 Bft) W -0.6 C 5.9 C
14.01.2004 17:00 4.2 C 70 % 1002.9 hPa 0.0 l/m 1.6 km/h (1 Bft) SO -0.8 C 3.9 C
14.01.2004 18:00 3.4 C 78 % 1001.8 hPa 0.0 l/m 1.1 km/h (0 Bft) SO -0.1 C 3.1 C
14.01.2004 19:00 4.9 C 68 % 1001.3 hPa 0.0 l/m 11.4 km/h (2 Bft) W -0.6 C 2.9 C
14.01.2004 20:00 5.9 C 61 % 1000.4 hPa 0.0 l/m 26.9 km/h (4 Bft) W-NW -1.2 C 1.7 C
14.01.2004 21:00 5.0 C 71 % 1000.4 hPa 0.3 l/m 22.2 km/h (4 Bft) W 0.3 C 1.0 C
14.01.2004 22:00 4.9 C 73 % 1000.7 hPa 0.3 l/m 35.9 km/h (5 Bft) W-NW 0.5 C -0.4 C
14.01.2004 23:00 3.3 C 78 % 1002.7 hPa 0.0 l/m 46.9 km/h (6 Bft) W-NW -0.2 C -3.5 C
15.01.2004 00:00 3.7 C 76 % 1003.7 hPa 0.0 l/m 38.8 km/h (5 Bft) W-NW -0.1 C -2.3 C
15.01.2004 01:00 4.5 C 62 % 1004.5 hPa 0.0 l/m 38.4 km/h (5 Bft) W-NW -2.1 C -1.2 C
15.01.2004 02:00 4.8 C 56 % 1004.5 hPa 0.0 l/m 35.3 km/h (5 Bft) W-NW -3.4 C -0.6 C
15.01.2004 03:00 4.5 C 55 % 1004.6 hPa 0.0 l/m 31.9 km/h (5 Bft) W-NW -3.7 C -0.7 C
15.01.2004 04:00 3.3 C 65 % 1005.4 hPa 0.0 l/m 44.9 km/h (6 Bft) W-NW -2.8 C -3.4 C
15.01.2004 05:00 2.7 C 72 % 1005.7 hPa 0.7 l/m 49.3 km/h (6 Bft) NW -2.0 C -4.3 C
15.01.2004 06:00 1.6 C 87 % 1007.2 hPa 1.0 l/m 40.2 km/h (6 Bft) NW -0.4 C -5.3 C
15.01.2004 07:00 1.4 C 87 % 1008.6 hPa 0.7 l/m 40.6 km/h (6 Bft) NW -0.5 C -5.5 C
15.01.2004 08:00 1.6 C 85 % 1009.7 hPa 0.3 l/m 38.5 km/h (5 Bft) NW -0.6 C -5.0 C
15.01.2004 09:00 2.2 C 78 % 1010.7 hPa 0.0 l/m 42.9 km/h (6 Bft) NW -1.2 C -4.6 C
15.01.2004 10:00 2.5 C 75 % 1012.0 hPa 0.0 l/m 34.2 km/h (5 Bft) NW -1.5 C -3.5 C
15.01.2004 11:00 2.8 C 72 % 1012.8 hPa 0.0 l/m 28.4 km/h (4 Bft) NW -1.7 C -2.4 C
15.01.2004 12:00 3.4 C 68 % 1013.4 hPa 0.0 l/m 24.7 km/h (4 Bft) NW -2.0 C -1.5 C
15.01.2004 13:00 3.6 C 61 % 1013.8 hPa 0.0 l/m 28.5 km/h (4 Bft) NW -3.2 C -1.6 C
15.01.2004 14:00 2.7 C 75 % 1013.9 hPa 0.3 l/m 13.3 km/h (3 Bft) NW -1.3 C -0.0 C
15.01.2004 15:00 3.5 C 73 % 1013.9 hPa 0.0 l/m 3.7 km/h (1 Bft) N-NO -0.9 C 2.7 C
15.01.2004 16:00 3.7 C 66 % 1014.3 hPa 0.0 l/m 9.7 km/h (2 Bft) W-NW -2.1 C 1.5 C
15.01.2004 17:00 2.8 C 67 % 1014.9 hPa 0.0 l/m 7.1 km/h (2 Bft) NW -2.7 C 1.1 C
15.01.2004 18:00 1.9 C 72 % 1014.9 hPa 0.0 l/m 2.7 km/h (1 Bft) SO -2.6 C 1.2 C
15.01.2004 19:00 2.1 C 75 % 1014.9 hPa 0.0 l/m 1.3 km/h (1 Bft) SO -1.8 C 1.8 C
15.01.2004 20:00 2.6 C 71 % 1014.9 hPa 0.0 l/m 4.2 km/h (1 Bft) S-SO -2.1 C 1.6 C
15.01.2004 21:00 2.6 C 70 % 1014.9 hPa 0.0 l/m 3.5 km/h (1 Bft) NW -2.4 C 1.8 C
15.01.2004 22:00 1.0 C 73 % 1013.9 hPa 0.0 l/m 1.1 km/h (0 Bft) O-SO -3.4 C 0.8 C
15.01.2004 23:00 0.2 C 79 % 1013.4 hPa 0.0 l/m 2.7 km/h (1 Bft) SO -3.0 C -0.5 C
16.01.2004 00:00 -0.2 C 81 % 1012.8 hPa 0.0 l/m 5.1 km/h (1 Bft) SO -3.1 C -1.7 C
16.01.2004 01:00 -0.5 C 82 % 1011.9 hPa 0.0 l/m 0.3 km/h (0 Bft) SO -3.3 C -0.5 C
16.01.2004 02:00 -0.0 C 84 % 1010.9 hPa 0.0 l/m 3.1 km/h (1 Bft) S -2.5 C -0.8 C
16.01.2004 03:00 0.7 C 76 % 1009.8 hPa 0.0 l/m 3.5 km/h (1 Bft) SO -3.1 C -0.2 C
16.01.2004 04:00 0.8 C 72 % 1008.7 hPa 0.0 l/m 5.5 km/h (1 Bft) SO -3.7 C -0.7 C
16.01.2004 05:00 0.8 C 71 % 1007.9 hPa 0.0 l/m 4.8 km/h (1 Bft) SO -3.9 C -0.5 C
16.01.2004 06:00 0.5 C 75 % 1006.8 hPa 0.0 l/m 0.7 km/h (0 Bft) S-SO -3.4 C 0.3 C
16.01.2004 07:00 1.3 C 71 % 1006.5 hPa 0.0 l/m 8.1 km/h (2 Bft) SO -3.4 C -0.8 C
16.01.2004 08:00 1.7 C 70 % 1005.6 hPa 0.0 l/m 3.9 km/h (1 Bft) SO -3.2 C 0.8 C
16.01.2004 09:00 3.8 C 64 % 1005.6 hPa 0.0 l/m 16.9 km/h (3 Bft) W-NW -2.6 C 1.0 C
16.01.2004 10:00 6.8 C 50 % 1005.6 hPa 0.0 l/m 26.8 km/h (4 Bft) W-NW -3.0 C 2.8 C
16.01.2004 11:00 6.4 C 57 % 1005.2 hPa 0.0 l/m 19.3 km/h (3 Bft) W-NW -1.5 C 3.1 C
16.01.2004 12:00 5.8 C 62 % 1004.5 hPa 0.3 l/m 29.3 km/h (5 Bft) W-NW -0.9 C 1.3 C
16.01.2004 13:00 5.5 C 71 % 1004.2 hPa 0.0 l/m 21.2 km/h (4 Bft) W 0.6 C 1.6 C
16.01.2004 14:00 6.6 C 62 % 1003.5 hPa 0.3 l/m 26.3 km/h (4 Bft) W -0.1 C 2.6 C
16.01.2004 15:00 5.4 C 75 % 1003.5 hPa 1.8 l/m 25.9 km/h (4 Bft) NW 1.2 C 1.0 C
16.01.2004 16:00 4.8 C 84 % 1003.5 hPa 1.4 l/m 20.1 km/h (4 Bft) W-NW 2.3 C 0.9 C
16.01.2004 17:00 4.7 C 86 % 1003.5 hPa 1.4 l/m 13.8 km/h (3 Bft) NW 2.6 C 2.1 C
16.01.2004 18:00 4.5 C 89 % 1003.5 hPa 0.7 l/m 4.2 km/h (1 Bft) W-NW 2.9 C 3.6 C
16.01.2004 19:00 4.6 C 89 % 1003.5 hPa 0.3 l/m 12.8 km/h (3 Bft) W 3.0 C 2.0 C
16.01.2004 20:00 5.5 C 81 % 1002.6 hPa 0.0 l/m 24.0 km/h (4 Bft) W 2.5 C 1.3 C
16.01.2004 21:00 6.3 C 74 % 1001.7 hPa 0.0 l/m 31.3 km/h (5 Bft) W-NW 2.0 C 1.7 C
16.01.2004 22:00 6.2 C 76 % 1001.2 hPa 0.7 l/m 18.6 km/h (3 Bft) W-NW 2.3 C 3.1 C
16.01.2004 23:00 5.9 C 83 % 1000.5 hPa 3.1 l/m 11.2 km/h (2 Bft) NW 3.3 C 4.0 C
17.01.2004 00:00 5.6 C 88 % 999.9 hPa 3.1 l/m 6.9 km/h (2 Bft) NW 3.8 C 4.4 C
17.01.2004 01:00 5.8 C 89 % 999.1 hPa 0.3 l/m 12.6 km/h (3 Bft) W-NW 4.1 C 3.4 C
17.01.2004 02:00 7.0 C 79 % 997.8 hPa 0.0 l/m 27.3 km/h (4 Bft) W 3.6 C 2.9 C
17.01.2004 03:00 7.2 C 75 % 997.4 hPa 1.4 l/m 25.9 km/h (4 Bft) W 3.2 C 3.4 C
17.01.2004 04:00 4.7 C 84 % 999.0 hPa 1.4 l/m 27.2 km/h (4 Bft) NW 2.3 C 0.1 C
17.01.2004 05:00 3.3 C 88 % 999.8 hPa 1.8 l/m 25.9 km/h (4 Bft) NW 1.5 C -1.7 C
17.01.2004 06:00 2.9 C 89 % 1001.3 hPa 0.3 l/m 23.0 km/h (4 Bft) NW 1.2 C -1.9 C
17.01.2004 07:00 2.8 C 89 % 1003.4 hPa 0.0 l/m 39.0 km/h (6 Bft) NW 1.2 C -3.5 C
17.01.2004 08:00 3.4 C 86 % 1005.1 hPa 0.0 l/m 25.8 km/h (4 Bft) NW 1.2 C -1.5 C
17.01.2004 09:00 3.8 C 83 % 1005.6 hPa 0.0 l/m 23.5 km/h (4 Bft) NW 1.3 C -0.8 C
17.01.2004 10:00 4.3 C 78 % 1005.6 hPa 0.0 l/m 28.3 km/h (4 Bft) NW 0.7 C -0.7 C
17.01.2004 11:00 4.7 C 72 % 1005.6 hPa 0.0 l/m 25.4 km/h (4 Bft) NW 0.2 C 0.2 C
17.01.2004 12:00 5.2 C 69 % 1004.6 hPa 0.0 l/m 13.8 km/h (3 Bft) W-NW -0.0 C 2.4 C
17.01.2004 13:00 5.5 C 67 % 1003.9 hPa 0.0 l/m 6.4 km/h (2 Bft) NW -0.2 C 4.2 C
17.01.2004 14:00 5.8 C 64 % 1003.5 hPa 0.0 l/m 2.7 km/h (1 Bft) W-NW -0.6 C 5.4 C
17.01.2004 15:00 5.4 C 67 % 1003.5 hPa 0.0 l/m 3.5 km/h (1 Bft) W-NW -0.2 C 4.8 C
17.01.2004 16:00 4.6 C 79 % 1003.5 hPa 0.0 l/m 4.9 km/h (1 Bft) SO 1.2 C 3.7 C
17.01.2004 17:00 4.0 C 85 % 1003.5 hPa 0.0 l/m 2.3 km/h (1 Bft) S-SO 1.7 C 3.5 C
17.01.2004 18:00 3.7 C 86 % 1003.5 hPa 0.0 l/m 0.1 km/h (0 Bft) SO 1.5 C 3.7 C
17.01.2004 19:00 3.5 C 85 % 1003.5 hPa 0.0 l/m 0.0 km/h (0 Bft) N 1.2 C 3.5 C
17.01.2004 20:00 2.8 C 88 % 1003.5 hPa 0.0 l/m 0.0 km/h (0 Bft) N 1.0 C 2.8 C
17.01.2004 21:00 3.1 C 96 % 1003.5 hPa 0.7 l/m 0.0 km/h (0 Bft) N 2.5 C 3.1 C
17.01.2004 22:00 3.1 C 97 % 1003.5 hPa 0.0 l/m 0.0 km/h (0 Bft) N 2.5 C 3.1 C
17.01.2004 23:00 2.9 C 98 % 1004.2 hPa 0.0 l/m 0.1 km/h (0 Bft) N 2.6 C 2.9 C
18.01.2004 00:00 2.9 C 100 % 1004.5 hPa 0.0 l/m 0.0 km/h (0 Bft) N 2.9 C 2.9 C
18.01.2004 01:00 3.0 C 100 % 1004.5 hPa 0.0 l/m 1.6 km/h (1 Bft) O-SO 3.0 C 2.7 C
18.01.2004 02:00 3.0 C 98 % 1004.5 hPa 0.3 l/m 1.1 km/h (1 Bft) O-SO 2.6 C 2.7 C
18.01.2004 03:00 3.0 C 96 % 1004.5 hPa 0.0 l/m 1.0 km/h (0 Bft) O-SO 2.4 C 2.8 C
18.01.2004 04:00 3.0 C 94 % 1005.2 hPa 0.3 l/m 0.1 km/h (0 Bft) N 2.2 C 3.0 C
18.01.2004 05:00 2.8 C 91 % 1005.6 hPa 0.3 l/m 0.1 km/h (0 Bft) O 1.4 C 2.8 C
18.01.2004 06:00 2.8 C 89 % 1006.6 hPa 0.0 l/m 1.5 km/h (1 Bft) N-NO 1.1 C 2.6 C
18.01.2004 07:00 2.8 C 85 % 1007.8 hPa 0.7 l/m 1.2 km/h (1 Bft) NO 0.6 C 2.7 C
18.01.2004 08:00 2.6 C 86 % 1009.1 hPa 0.7 l/m 1.4 km/h (1 Bft) N-NO 0.6 C 2.4 C
18.01.2004 09:00 2.7 C 86 % 1010.2 hPa 1.0 l/m 1.0 km/h (0 Bft) NO 0.6 C 2.6 C
18.01.2004 10:00 3.3 C 84 % 1011.7 hPa 0.3 l/m 1.5 km/h (1 Bft) N-NO 0.7 C 3.0 C
18.01.2004 11:00 3.7 C 81 % 1013.3 hPa 0.0 l/m 1.9 km/h (1 Bft) NO 0.8 C 3.5 C
18.01.2004 12:00 3.9 C 77 % 1013.9 hPa 0.0 l/m 0.7 km/h (0 Bft) N-NO 0.2 C 3.9 C
18.01.2004 13:00 4.2 C 69 % 1014.9 hPa 0.0 l/m 3.5 km/h (1 Bft) N -1.0 C 3.5 C
18.01.2004 14:00 4.4 C 62 % 1016.0 hPa 0.0 l/m 5.2 km/h (1 Bft) N -2.2 C 3.3 C
18.01.2004 15:00 3.8 C 61 % 1016.9 hPa 0.0 l/m 3.1 km/h (1 Bft) N-NO -2.9 C 3.3 C
18.01.2004 16:00 3.2 C 63 % 1017.9 hPa 0.0 l/m 1.9 km/h (1 Bft) N -3.2 C 2.9 C
18.01.2004 17:00 2.8 C 65 % 1019.2 hPa 0.0 l/m 1.0 km/h (0 Bft) N-NO -3.2 C 2.6 C
18.01.2004 18:00 2.5 C 65 % 1020.1 hPa 0.0 l/m 1.4 km/h (1 Bft) N-NO -3.4 C 2.3 C
18.01.2004 19:00 2.2 C 66 % 1020.6 hPa 0.0 l/m 1.9 km/h (1 Bft) N -3.5 C 1.9 C
18.01.2004 20:00 1.7 C 66 % 1021.4 hPa 0.0 l/m 3.7 km/h (1 Bft) N -4.0 C 0.8 C
18.01.2004 21:00 0.9 C 66 % 1022.2 hPa 0.0 l/m 0.2 km/h (0 Bft) N -4.7 C 0.9 C
18.01.2004 22:00 0.2 C 68 % 1022.9 hPa 0.0 l/m 0.2 km/h (0 Bft) NO -4.9 C 0.2 C
18.01.2004 23:00 -0.4 C 69 % 1023.3 hPa 0.0 l/m 0.1 km/h (0 Bft) N -5.4 C -0.4 C
Min-Datum _ 18.01.04 16.01.04 13.01.04 - 12.01.04 - 18.01.04 15.01.04
_ Min-Zeit 23:58 10:15 21:40 - 06:15 - 23:58 07:27
Minimum _ -0.9 C 48 % 994.1 hPa - 0.0 km/h (0 Bft) - -5.7 C -6.3 C
Max-Datum _ 12.01.04 17.01.04 18.01.04 13.01.04 12.01.04 - 13.01.04 12.01.04
_ Max-Zeit 20:18 23:04 22:07 08:00 20:39 - 12:33 20:18
Maximum _ 12.7 C 100 % 1023.3 hPa 6.6 l/m 110.5 km/h
W-NW (11 Bft)
- 10.8 C 12.7 C
Durchschnitt _ 5.2 C 77 % 1006.5 hPa #93.4 l/m 17.5 km/h (3 Bft) W-NW 1.3 C 2.9 C

Durchschnitt Minimum Temp.4.7 C
Durchschnitt Maximum Temp.5.7 C
© Kaiko 2004